createdAt,value
2022-10-09T00:00:41.659Z,9.71
2022-10-09T00:03:29.229Z,9.74
2022-10-09T00:06:16.772Z,10.18
2022-10-09T00:09:04.341Z,10.16
2022-10-09T00:11:51.908Z,10.47
2022-10-09T00:14:39.462Z,10.52
2022-10-09T00:17:27.011Z,10.66
2022-10-09T00:20:14.813Z,10.74
2022-10-09T00:23:02.449Z,10.90
2022-10-09T00:25:50.069Z,10.80
2022-10-09T00:28:38.834Z,10.47
2022-10-09T00:31:26.622Z,10.64
2022-10-09T00:34:14.165Z,10.62
2022-10-09T00:37:01.746Z,10.16
2022-10-09T00:39:49.307Z,10.35
2022-10-09T00:42:36.877Z,10.58
2022-10-09T00:45:24.442Z,10.43
2022-10-09T00:48:14.008Z,10.34
2022-10-09T00:51:01.558Z,10.73
2022-10-09T00:53:49.114Z,9.61
2022-10-09T00:56:36.664Z,9.68
2022-10-09T00:59:24.220Z,10.26
2022-10-09T01:02:11.794Z,9.93
2022-10-09T01:04:59.411Z,10.26
2022-10-09T01:07:46.958Z,10.20
2022-10-09T01:10:34.528Z,10.44
2022-10-09T01:13:22.105Z,9.97
2022-10-09T01:16:09.799Z,10.00
2022-10-09T01:18:57.438Z,9.50
2022-10-09T01:21:45.097Z,10.12
2022-10-09T01:24:32.659Z,10.26
2022-10-09T01:27:20.222Z,9.64
2022-10-09T01:30:07.818Z,10.02
2022-10-09T01:32:55.389Z,10.57
2022-10-09T01:35:42.956Z,10.83
2022-10-09T01:38:30.521Z,11.32
2022-10-09T01:41:18.108Z,10.79
2022-10-09T01:44:05.661Z,10.76
2022-10-09T01:46:53.226Z,10.27
2022-10-09T01:49:40.811Z,10.31
2022-10-09T01:52:28.369Z,10.06
2022-10-09T01:55:15.929Z,9.91
2022-10-09T01:58:03.485Z,10.17
2022-10-09T02:00:52.100Z,9.61
2022-10-09T02:03:39.644Z,9.38
2022-10-09T02:06:27.210Z,9.43
2022-10-09T02:09:14.758Z,9.03
2022-10-09T02:12:02.331Z,8.56
2022-10-09T02:14:49.891Z,8.77
2022-10-09T02:17:37.460Z,8.60
2022-10-09T02:20:25.021Z,8.04
2022-10-09T02:23:12.584Z,7.94
2022-10-09T02:26:00.146Z,8.16
2022-10-09T02:28:47.813Z,7.66
2022-10-09T02:31:35.552Z,7.88
2022-10-09T02:34:23.111Z,7.71
2022-10-09T02:37:10.657Z,7.01
2022-10-09T02:39:58.233Z,7.31
2022-10-09T02:42:45.899Z,7.10
2022-10-09T02:45:33.610Z,7.40
2022-10-09T02:48:21.166Z,7.51
2022-10-09T02:51:08.735Z,7.38
2022-10-09T02:53:56.289Z,7.31
2022-10-09T02:56:43.850Z,7.11
2022-10-09T02:59:31.384Z,7.52
2022-10-09T03:02:19.166Z,7.14
2022-10-09T03:05:08.777Z,6.94
2022-10-09T03:07:56.345Z,7.16
2022-10-09T03:10:43.880Z,7.07
2022-10-09T03:13:31.446Z,6.89
2022-10-09T03:16:19.041Z,6.83
2022-10-09T03:19:06.658Z,6.13
2022-10-09T03:21:54.184Z,6.45
2022-10-09T03:24:41.749Z,6.50
2022-10-09T03:27:29.286Z,5.96
2022-10-09T03:30:16.847Z,5.91
2022-10-09T03:33:04.398Z,6.07
2022-10-09T03:35:52.061Z,5.98
2022-10-09T03:38:41.580Z,5.93
2022-10-09T03:41:29.144Z,5.53
2022-10-09T03:44:16.690Z,5.58
2022-10-09T03:47:04.319Z,5.64
2022-10-09T03:49:51.931Z,5.49
2022-10-09T03:52:39.500Z,5.60
2022-10-09T03:55:27.038Z,5.43
2022-10-09T03:58:14.602Z,5.82
2022-10-09T04:01:02.205Z,5.59
2022-10-09T04:03:49.821Z,5.48
2022-10-09T04:06:37.361Z,5.51
2022-10-09T04:09:24.924Z,5.66
2022-10-09T04:12:12.463Z,5.83
2022-10-09T04:15:00.035Z,6.34
2022-10-09T04:17:47.577Z,5.91
2022-10-09T04:20:35.147Z,6.61
2022-10-09T04:23:22.684Z,6.40
2022-10-09T04:26:10.257Z,6.44
2022-10-09T04:28:57.802Z,6.38
2022-10-09T04:31:45.411Z,6.16
2022-10-09T04:34:32.995Z,6.13
2022-10-09T04:37:20.543Z,5.92
2022-10-09T04:40:08.172Z,5.91
2022-10-09T04:42:55.714Z,6.08
2022-10-09T04:45:43.330Z,6.46
2022-10-09T04:48:30.921Z,6.40
2022-10-09T04:51:18.486Z,6.41
2022-10-09T04:54:06.033Z,6.75
2022-10-09T04:56:53.602Z,6.24
2022-10-09T04:59:41.166Z,6.49
2022-10-09T05:02:28.750Z,6.51
2022-10-09T05:05:16.356Z,6.63
2022-10-09T05:08:03.893Z,6.47
2022-10-09T05:10:51.456Z,6.45
2022-10-09T05:13:38.995Z,6.11
2022-10-09T05:16:26.593Z,6.49
2022-10-09T05:19:14.740Z,6.22
2022-10-09T05:22:02.288Z,6.21
2022-10-09T05:24:49.830Z,6.44
2022-10-09T05:27:37.381Z,6.15
2022-10-09T05:30:24.933Z,6.49
2022-10-09T05:33:12.507Z,6.24
2022-10-09T05:36:00.036Z,6.60
2022-10-09T05:38:47.605Z,6.43
2022-10-09T05:41:35.282Z,6.14
2022-10-09T05:44:22.826Z,6.18
2022-10-09T05:47:10.373Z,6.32
2022-10-09T05:49:57.904Z,6.07
2022-10-09T05:52:45.467Z,6.01
2022-10-09T05:55:33.045Z,5.90
2022-10-09T05:58:20.703Z,5.86
2022-10-09T06:01:08.293Z,6.19
2022-10-09T06:03:55.882Z,5.96
2022-10-09T06:06:43.438Z,5.56
2022-10-09T06:09:31.001Z,5.45
2022-10-09T06:12:18.557Z,5.91
2022-10-09T06:15:06.100Z,6.00
2022-10-09T06:17:53.649Z,6.09
2022-10-09T06:20:41.212Z,5.95
2022-10-09T06:23:28.744Z,6.22
2022-10-09T06:26:16.318Z,5.76
2022-10-09T06:29:03.867Z,5.98
2022-10-09T06:31:51.429Z,5.94
2022-10-09T06:34:38.990Z,5.79
2022-10-09T06:37:26.537Z,5.83
2022-10-09T06:40:16.095Z,5.99
2022-10-09T06:43:03.636Z,6.02
2022-10-09T06:45:51.337Z,5.98
2022-10-09T06:48:38.919Z,6.52
2022-10-09T06:51:26.479Z,5.92
2022-10-09T06:54:14.024Z,6.10
2022-10-09T06:57:01.589Z,6.24
2022-10-09T06:59:49.144Z,6.64
2022-10-09T07:02:41.778Z,6.49
2022-10-09T07:05:31.384Z,6.24
2022-10-09T07:08:18.947Z,5.87
2022-10-09T07:11:06.494Z,5.52
2022-10-09T07:13:54.049Z,6.08
2022-10-09T07:16:41.583Z,5.96
2022-10-09T07:19:29.160Z,5.98
2022-10-09T07:22:16.718Z,6.18
2022-10-09T07:25:04.269Z,5.94
2022-10-09T07:27:51.823Z,5.96
2022-10-09T07:30:39.435Z,6.39
2022-10-09T07:33:27.006Z,6.21
2022-10-09T07:36:14.676Z,5.95
2022-10-09T07:39:02.204Z,6.22
2022-10-09T07:41:49.773Z,6.59
2022-10-09T07:44:37.308Z,6.35
2022-10-09T07:47:24.965Z,6.49
2022-10-09T07:50:12.528Z,6.40
2022-10-09T07:53:00.085Z,6.37
2022-10-09T07:55:47.618Z,6.32
2022-10-09T07:58:35.200Z,6.77
2022-10-09T08:01:22.807Z,6.53
2022-10-09T08:04:10.446Z,6.77
2022-10-09T08:06:57.975Z,7.00
2022-10-09T08:09:45.611Z,6.97
2022-10-09T08:12:33.146Z,7.20
2022-10-09T08:15:20.714Z,7.22
2022-10-09T08:18:08.272Z,7.56
2022-10-09T08:20:55.821Z,7.55
2022-10-09T08:23:45.381Z,8.07
2022-10-09T08:26:32.925Z,7.78
2022-10-09T08:29:20.499Z,7.87
2022-10-09T08:32:08.031Z,7.92
2022-10-09T08:34:55.680Z,7.85
2022-10-09T08:37:43.216Z,7.79
2022-10-09T08:40:30.769Z,7.83
2022-10-09T08:43:18.324Z,7.58
2022-10-09T08:46:05.913Z,8.16
2022-10-09T08:48:53.529Z,8.00
2022-10-09T08:51:41.081Z,7.49
2022-10-09T08:54:28.733Z,7.60
2022-10-09T08:57:16.290Z,8.48
2022-10-09T09:00:03.862Z,7.94
2022-10-09T09:02:51.972Z,8.42
2022-10-09T09:05:40.031Z,8.90
2022-10-09T09:08:27.564Z,8.47
2022-10-09T09:11:18.185Z,8.48
2022-10-09T09:14:08.937Z,8.19
2022-10-09T09:16:56.494Z,7.77
2022-10-09T09:19:44.065Z,7.89
2022-10-09T09:22:31.608Z,8.10
2022-10-09T09:25:19.179Z,8.21
2022-10-09T09:28:10.147Z,8.31
2022-10-09T09:31:00.016Z,8.38
2022-10-09T09:33:47.579Z,7.96
2022-10-09T09:36:35.137Z,8.07
2022-10-09T09:40:23.751Z,16.73
2022-10-09T09:42:30.309Z,8.19
2022-10-09T09:45:17.848Z,8.22
2022-10-09T09:48:05.414Z,7.91
2022-10-09T09:51:10.126Z,8.32
2022-10-09T09:54:00.471Z,8.04
2022-10-09T09:59:55.526Z,8.15
2022-10-09T10:02:43.081Z,7.77
2022-10-09T10:05:30.638Z,8.04
2022-10-09T10:08:18.224Z,8.26
2022-10-09T10:11:05.775Z,8.44
2022-10-09T10:13:53.301Z,8.01
2022-10-09T10:16:40.938Z,8.62
2022-10-09T10:19:28.535Z,8.51
2022-10-09T10:22:16.098Z,8.70
2022-10-09T10:25:03.638Z,8.49
2022-10-09T10:27:51.835Z,8.73
2022-10-09T10:30:39.435Z,8.37
2022-10-09T10:33:27.005Z,8.21
2022-10-09T10:36:14.546Z,7.97
2022-10-09T10:39:02.110Z,8.42
2022-10-09T10:41:49.659Z,17.12
2022-10-09T10:44:37.248Z,14.00
2022-10-09T10:47:24.809Z,10.44
2022-10-09T10:50:12.479Z,8.11
2022-10-09T10:53:00.025Z,9.42
2022-10-09T10:55:47.582Z,8.08
2022-10-09T10:58:35.140Z,7.53
2022-10-09T11:01:22.786Z,12.16
2022-10-09T11:04:10.393Z,23.79
2022-10-09T11:06:57.974Z,12.12
2022-10-09T11:09:45.533Z,8.12
2022-10-09T11:12:47.340Z,8.95
2022-10-09T11:15:40.653Z,8.68
2022-10-09T11:18:28.220Z,8.53
2022-10-09T11:21:15.784Z,8.96
2022-10-09T11:24:03.346Z,8.18
2022-10-09T11:26:50.907Z,8.55
2022-10-09T11:29:38.556Z,8.73
2022-10-09T11:32:28.137Z,8.42
2022-10-09T11:35:15.844Z,8.20
2022-10-09T11:38:03.378Z,8.10
2022-10-09T11:40:51.025Z,8.19
2022-10-09T11:43:38.579Z,8.02
2022-10-09T11:46:26.149Z,7.58
2022-10-09T11:49:13.713Z,8.40
2022-10-09T11:52:01.269Z,7.94
2022-10-09T11:54:48.804Z,8.38
2022-10-09T11:57:36.470Z,8.51
2022-10-09T12:00:26.012Z,8.73
2022-10-09T12:03:13.589Z,8.27
2022-10-09T12:06:01.158Z,19.31
2022-10-09T12:08:48.736Z,8.88
2022-10-09T12:11:36.282Z,8.53
2022-10-09T12:14:23.842Z,8.71
2022-10-09T12:17:11.417Z,7.88
2022-10-09T12:20:01.241Z,7.76
2022-10-09T12:23:07.201Z,7.93
2022-10-09T12:25:56.452Z,8.46
2022-10-09T12:28:44.048Z,8.51
2022-10-09T12:31:31.702Z,8.31
2022-10-09T12:34:19.313Z,8.42
2022-10-09T12:37:06.852Z,8.34
2022-10-09T12:39:54.424Z,7.76
2022-10-09T12:42:41.959Z,7.70
2022-10-09T12:45:29.508Z,7.47
2022-10-09T12:48:17.065Z,7.92
2022-10-09T12:51:04.638Z,7.88
2022-10-09T12:53:52.176Z,7.46
2022-10-09T12:56:39.734Z,7.68
2022-10-09T12:59:27.317Z,7.53
2022-10-09T13:02:14.924Z,7.36
2022-10-09T13:05:02.668Z,7.23
2022-10-09T13:07:50.203Z,6.86
2022-10-09T13:10:37.766Z,7.35
2022-10-09T13:13:25.321Z,7.04
2022-10-09T13:16:12.908Z,7.37
2022-10-09T13:19:00.477Z,7.14
2022-10-09T13:21:48.035Z,7.41
2022-10-09T13:24:35.576Z,7.65
2022-10-09T13:27:23.135Z,7.32
2022-10-09T13:30:10.760Z,7.49
2022-10-09T13:32:58.381Z,7.55
2022-10-09T13:35:45.924Z,7.31
2022-10-09T13:38:35.089Z,7.49
2022-10-09T13:41:23.070Z,7.21
2022-10-09T13:44:10.648Z,7.17
2022-10-09T13:46:58.185Z,7.38
2022-10-09T13:49:45.756Z,7.61
2022-10-09T13:52:33.343Z,7.69
2022-10-09T13:55:20.946Z,7.40
2022-10-09T13:58:08.487Z,8.04
2022-10-09T14:00:56.053Z,7.54
2022-10-09T14:03:43.594Z,7.92
2022-10-09T14:06:31.252Z,8.06
2022-10-09T14:09:18.789Z,8.13
2022-10-09T14:12:06.357Z,8.21
2022-10-09T14:14:53.911Z,8.20
2022-10-09T14:17:41.530Z,8.88
2022-10-09T14:20:29.063Z,8.33
2022-10-09T14:23:16.625Z,8.68
2022-10-09T14:26:04.170Z,8.48
2022-10-09T14:28:51.787Z,8.71
2022-10-09T14:31:39.461Z,8.75
2022-10-09T14:34:27.122Z,8.81
2022-10-09T14:37:29.768Z,8.48
2022-10-09T14:40:24.216Z,8.46
2022-10-09T14:43:11.770Z,8.36
2022-10-09T14:45:59.333Z,8.41
2022-10-09T14:48:46.873Z,8.58
2022-10-09T14:51:36.794Z,8.38
2022-10-09T14:54:24.691Z,8.35
2022-10-09T14:57:12.251Z,8.40
2022-10-09T14:59:59.799Z,8.45
2022-10-09T15:02:47.385Z,8.02
2022-10-09T15:05:34.933Z,8.26
2022-10-09T15:08:22.510Z,8.26
2022-10-09T15:11:10.035Z,8.15
2022-10-09T15:13:57.600Z,8.07
2022-10-09T15:16:45.143Z,8.68
2022-10-09T15:19:32.695Z,7.90
2022-10-09T15:22:20.249Z,8.30
2022-10-09T15:25:07.802Z,8.44
2022-10-09T15:27:55.596Z,8.26
2022-10-09T15:30:43.477Z,8.75
2022-10-09T15:33:31.019Z,8.81
2022-10-09T15:36:18.681Z,8.66
2022-10-09T15:39:06.203Z,8.40
2022-10-09T15:41:53.773Z,8.47
2022-10-09T15:44:41.330Z,8.81
2022-10-09T15:47:50.038Z,8.33
2022-10-09T15:50:36.376Z,8.40
2022-10-09T15:53:23.970Z,8.74
2022-10-09T15:56:11.498Z,8.09
2022-10-09T15:58:59.159Z,8.25
2022-10-09T16:01:48.702Z,8.54
2022-10-09T16:04:36.404Z,8.16
2022-10-09T16:07:23.938Z,8.23
2022-10-09T16:10:11.613Z,8.33
2022-10-09T16:12:59.160Z,7.97
2022-10-09T16:15:46.716Z,8.02
2022-10-09T16:18:34.243Z,7.51
2022-10-09T16:21:21.808Z,7.22
2022-10-09T16:24:09.337Z,7.19
2022-10-09T16:26:56.921Z,9.15
2022-10-09T16:29:44.470Z,9.18
2022-10-09T16:32:32.039Z,8.79
2022-10-09T16:35:19.592Z,7.99
2022-10-09T16:38:07.163Z,8.90
2022-10-09T16:41:02.014Z,8.33
2022-10-09T16:43:50.317Z,8.37
2022-10-09T16:46:39.851Z,8.81
2022-10-09T16:49:27.411Z,9.09
2022-10-09T16:52:14.951Z,9.58
2022-10-09T16:55:02.519Z,9.13
2022-10-09T16:57:50.290Z,8.68
2022-10-09T17:00:38.078Z,8.65
2022-10-09T17:03:25.661Z,8.50
2022-10-09T17:06:13.310Z,8.88
2022-10-09T17:09:02.839Z,8.73
2022-10-09T17:11:50.505Z,8.63
2022-10-09T17:14:40.043Z,8.56
2022-10-09T17:17:27.641Z,8.54
2022-10-09T17:20:15.199Z,8.51
2022-10-09T17:23:02.752Z,8.17
2022-10-09T17:25:50.290Z,8.83
2022-10-09T17:28:37.909Z,8.79
2022-10-09T17:31:25.478Z,8.49
2022-10-09T17:34:13.044Z,8.38
2022-10-09T17:37:00.594Z,8.41
2022-10-09T17:39:51.991Z,8.48
2022-10-09T17:42:39.948Z,8.78
2022-10-09T17:45:27.503Z,8.36
2022-10-09T17:48:15.045Z,8.32
2022-10-09T17:51:02.606Z,8.05
2022-10-09T17:53:51.315Z,8.55
2022-10-09T17:56:38.938Z,8.79
2022-10-09T17:59:26.480Z,8.92
2022-10-09T18:02:14.068Z,9.03
2022-10-09T18:05:01.599Z,9.10
2022-10-09T18:07:49.307Z,8.42
2022-10-09T18:10:37.080Z,8.11
2022-10-09T18:13:24.642Z,8.66
2022-10-09T18:16:12.200Z,8.22
2022-10-09T18:18:59.752Z,8.41
2022-10-09T18:21:47.311Z,8.51
2022-10-09T18:24:34.873Z,8.32
2022-10-09T18:27:22.420Z,8.42
2022-10-09T18:30:09.968Z,8.51
2022-10-09T18:32:57.537Z,8.38
2022-10-09T18:35:45.096Z,7.86
2022-10-09T18:38:32.628Z,8.23
2022-10-09T18:41:20.187Z,8.02
2022-10-09T18:44:07.725Z,7.62
2022-10-09T18:46:55.271Z,8.41
2022-10-09T18:49:42.837Z,8.14
2022-10-09T18:52:30.497Z,8.90
2022-10-09T18:55:20.022Z,9.03
2022-10-09T18:58:07.584Z,17.45
2022-10-09T19:00:55.206Z,39.36
2022-10-09T19:03:45.979Z,30.86
2022-10-09T19:06:36.736Z,12.71
2022-10-09T19:09:24.308Z,7.26
2022-10-09T19:12:11.899Z,6.92
2022-10-09T19:14:59.455Z,9.24
2022-10-09T19:17:47.142Z,10.43
2022-10-09T19:20:34.818Z,8.76
2022-10-09T19:23:22.390Z,9.03
2022-10-09T19:26:09.942Z,8.67
2022-10-09T19:28:57.501Z,8.83
2022-10-09T19:31:45.048Z,8.52
2022-10-09T19:34:32.622Z,8.79
2022-10-09T19:37:20.154Z,8.61
2022-10-09T19:40:07.734Z,9.01
2022-10-09T19:42:55.302Z,8.86
2022-10-09T19:45:42.870Z,9.04
2022-10-09T19:48:30.426Z,9.38
2022-10-09T19:51:17.999Z,9.60
2022-10-09T19:54:05.555Z,9.13
2022-10-09T19:56:53.104Z,9.06
2022-10-09T19:59:40.664Z,8.51
2022-10-09T20:02:28.201Z,8.39
2022-10-09T20:05:15.762Z,7.81
2022-10-09T20:08:03.304Z,7.44
2022-10-09T20:10:50.886Z,7.70
2022-10-09T20:13:38.442Z,7.79
2022-10-09T20:16:26.001Z,8.17
2022-10-09T20:19:13.572Z,8.23
2022-10-09T20:22:01.202Z,9.30
2022-10-09T20:24:48.744Z,8.39
2022-10-09T20:27:36.333Z,8.76
2022-10-09T20:30:23.917Z,8.91
2022-10-09T20:33:11.479Z,8.96
2022-10-09T20:35:59.023Z,8.63
2022-10-09T20:38:46.582Z,8.53
2022-10-09T20:41:34.214Z,8.00
2022-10-09T20:44:21.798Z,6.93
2022-10-09T20:47:09.360Z,6.59
2022-10-09T20:49:57.076Z,7.31
2022-10-09T20:52:44.606Z,8.18
2022-10-09T20:55:32.214Z,8.40
2022-10-09T20:58:19.785Z,7.81
2022-10-09T21:01:07.375Z,7.84
2022-10-09T21:03:54.957Z,8.40
2022-10-09T21:06:42.525Z,9.05
2022-10-09T21:09:33.233Z,10.08
2022-10-09T21:12:21.129Z,9.84
2022-10-09T21:15:08.702Z,9.81
2022-10-09T21:17:56.327Z,9.28
2022-10-09T21:20:43.915Z,9.84
2022-10-09T21:23:31.505Z,9.68
2022-10-09T21:26:19.100Z,9.85
2022-10-09T21:29:06.660Z,9.81
2022-10-09T21:31:54.232Z,10.14
2022-10-09T21:34:42.981Z,10.58
2022-10-09T21:37:33.519Z,10.75
2022-10-09T21:40:23.143Z,11.02
2022-10-09T21:43:10.932Z,11.53
2022-10-09T21:45:58.500Z,11.79
2022-10-09T21:48:46.115Z,11.39
2022-10-09T21:51:33.699Z,11.59
2022-10-09T21:54:21.255Z,11.17
2022-10-09T21:57:08.828Z,12.01
2022-10-09T21:59:56.437Z,12.31
2022-10-09T22:02:43.998Z,12.00
2022-10-09T22:05:31.568Z,12.44
2022-10-09T22:08:19.162Z,11.41
2022-10-09T22:11:06.723Z,11.71
2022-10-09T22:13:54.284Z,11.66
2022-10-09T22:16:41.847Z,11.95
2022-10-09T22:19:29.416Z,11.40
2022-10-09T22:22:16.957Z,12.82
2022-10-09T22:25:04.541Z,13.47
2022-10-09T22:27:52.109Z,12.79
2022-10-09T22:30:39.663Z,12.41
2022-10-09T22:33:27.208Z,12.19
2022-10-09T22:36:14.876Z,12.26
2022-10-09T22:39:04.416Z,12.18
2022-10-09T22:41:51.970Z,12.06
2022-10-09T22:44:39.537Z,12.04
2022-10-09T22:47:27.122Z,11.68
2022-10-09T22:50:14.664Z,11.94
2022-10-09T22:53:02.213Z,12.18
2022-10-09T22:55:49.777Z,12.39
2022-10-09T22:58:37.343Z,12.01
2022-10-09T23:01:24.946Z,11.73
2022-10-09T23:04:12.557Z,11.50
2022-10-09T23:07:00.122Z,11.79
2022-10-09T23:09:47.688Z,12.23
2022-10-09T23:12:35.237Z,11.87
2022-10-09T23:15:22.806Z,12.18
2022-10-09T23:18:10.366Z,12.52
2022-10-09T23:20:57.958Z,12.64
2022-10-09T23:23:45.496Z,12.81
2022-10-09T23:26:33.053Z,11.92
2022-10-09T23:29:20.640Z,10.85
2022-10-09T23:32:08.189Z,11.68
2022-10-09T23:34:55.763Z,11.29
2022-10-09T23:37:43.323Z,11.73
2022-10-09T23:40:30.913Z,12.13
2022-10-09T23:43:18.465Z,12.15
2022-10-09T23:46:06.036Z,13.05
2022-10-09T23:48:53.605Z,13.04
2022-10-09T23:51:41.141Z,12.82
2022-10-09T23:54:28.708Z,12.79
2022-10-09T23:57:16.261Z,13.14
